createdAt,value
2022-08-04T00:00:18.654Z,22.32
2022-08-04T00:02:45.413Z,22.33
2022-08-04T00:05:29.508Z,22.31
2022-08-04T00:08:03.859Z,22.21
2022-08-04T00:10:33.286Z,22.22
2022-08-04T00:13:02.539Z,22.19
2022-08-04T00:15:30.488Z,22.17
2022-08-04T00:18:08.994Z,22.19
2022-08-04T00:20:39.644Z,22.23
2022-08-04T00:23:08.140Z,22.16
2022-08-04T00:25:39.008Z,22.16
2022-08-04T00:28:06.385Z,22.14
2022-08-04T00:30:33.913Z,22.08
2022-08-04T00:33:00.917Z,22.17
2022-08-04T00:35:29.353Z,22.12
2022-08-04T00:37:57.204Z,22.11
2022-08-04T00:40:32.918Z,22.07
2022-08-04T00:43:29.109Z,22.05
2022-08-04T00:46:17.187Z,22.08
2022-08-04T00:49:15.319Z,22.09
2022-08-04T00:51:42.111Z,22.04
2022-08-04T00:54:18.166Z,22.04
2022-08-04T00:57:39.457Z,22.01
2022-08-04T01:00:10.154Z,21.98
2022-08-04T01:03:08.213Z,22.00
2022-08-04T01:05:38.610Z,21.98
2022-08-04T01:08:45.913Z,21.92
2022-08-04T01:11:12.703Z,21.90
2022-08-04T01:13:54.003Z,21.90
2022-08-04T01:16:26.064Z,21.88
2022-08-04T01:19:08.138Z,21.90
2022-08-04T01:22:05.999Z,21.90
2022-08-04T01:25:06.752Z,21.94
2022-08-04T01:27:57.023Z,21.95
2022-08-04T01:30:27.629Z,21.89
2022-08-04T01:33:01.020Z,21.89
2022-08-04T01:35:48.538Z,21.95
2022-08-04T01:38:19.182Z,21.99
2022-08-04T01:40:53.599Z,22.02
2022-08-04T01:43:21.594Z,22.07
2022-08-04T01:46:01.002Z,22.03
2022-08-04T01:48:29.575Z,22.00
2022-08-04T01:51:06.054Z,21.96
2022-08-04T01:53:35.427Z,21.90
2022-08-04T01:56:04.181Z,21.87
2022-08-04T01:58:33.328Z,21.89
2022-08-04T02:01:06.617Z,21.89
2022-08-04T02:04:19.435Z,21.90
2022-08-04T02:06:48.293Z,21.88
2022-08-04T02:09:38.567Z,21.82
2022-08-04T02:12:32.593Z,21.75
2022-08-04T02:15:06.226Z,21.82
2022-08-04T02:17:43.525Z,21.75
2022-08-04T02:20:22.120Z,21.65
2022-08-04T02:23:10.082Z,21.66
2022-08-04T02:25:47.300Z,21.64
2022-08-04T02:28:27.969Z,21.64
2022-08-04T02:31:28.872Z,21.63
2022-08-04T02:34:06.339Z,21.58
2022-08-04T02:36:41.621Z,21.56
2022-08-04T02:39:10.799Z,21.56
2022-08-04T02:41:39.147Z,21.59
2022-08-04T02:44:08.856Z,21.59
2022-08-04T02:46:37.361Z,21.56
2022-08-04T02:49:06.556Z,21.54
2022-08-04T02:51:42.808Z,21.54
2022-08-04T02:54:09.857Z,21.51
2022-08-04T02:56:38.872Z,21.57
2022-08-04T02:59:11.951Z,21.56
2022-08-04T03:01:57.165Z,21.59
2022-08-04T03:04:51.825Z,21.60
2022-08-04T03:07:24.639Z,21.63
2022-08-04T03:10:21.793Z,21.65
2022-08-04T03:12:58.788Z,21.58
2022-08-04T03:15:26.027Z,21.55
2022-08-04T03:18:23.522Z,21.56
2022-08-04T03:21:27.549Z,21.54
2022-08-04T03:24:31.559Z,21.52
2022-08-04T03:27:12.262Z,21.47
2022-08-04T03:30:06.344Z,21.53
2022-08-04T03:32:57.292Z,21.51
2022-08-04T03:35:54.700Z,21.48
2022-08-04T03:38:36.494Z,21.45
2022-08-04T03:41:55.088Z,21.43
2022-08-04T03:44:57.299Z,21.42
2022-08-04T03:47:53.251Z,21.41
2022-08-04T03:50:42.361Z,21.39
2022-08-04T03:53:17.925Z,21.42
2022-08-04T03:55:47.188Z,21.40
2022-08-04T03:58:35.545Z,21.51
2022-08-04T04:01:17.582Z,21.54
2022-08-04T04:03:48.816Z,21.49
2022-08-04T04:06:53.917Z,21.49
2022-08-04T04:09:57.551Z,21.53
2022-08-04T04:12:49.123Z,21.56
2022-08-04T04:15:49.821Z,21.55
2022-08-04T04:18:23.737Z,21.54
2022-08-04T04:21:05.518Z,21.62
2022-08-04T04:23:44.059Z,21.68
2022-08-04T04:26:54.813Z,21.71
2022-08-04T04:29:24.589Z,21.77
2022-08-04T04:32:04.893Z,21.79
2022-08-04T04:34:46.384Z,21.78
2022-08-04T04:37:35.120Z,21.86
2022-08-04T04:40:44.073Z,21.87
2022-08-04T04:43:52.061Z,21.89
2022-08-04T04:46:43.352Z,21.92
2022-08-04T04:49:28.831Z,21.96
2022-08-04T04:52:13.656Z,21.90
2022-08-04T04:55:00.188Z,22.06
2022-08-04T04:57:54.153Z,22.09
2022-08-04T05:00:18.737Z,22.13
2022-08-04T05:03:08.715Z,22.19
2022-08-04T05:05:41.853Z,22.20
2022-08-04T05:08:44.889Z,22.25
2022-08-04T05:11:40.019Z,22.31
2022-08-04T05:14:38.230Z,22.36
2022-08-04T05:17:14.047Z,22.42
2022-08-04T05:19:46.665Z,22.46
2022-08-04T05:22:22.536Z,22.50
2022-08-04T05:24:55.501Z,22.50
2022-08-04T05:27:40.355Z,22.55
2022-08-04T05:30:09.150Z,22.60
2022-08-04T05:32:49.263Z,22.65
2022-08-04T05:35:52.885Z,22.71
2022-08-04T05:38:18.504Z,22.73
2022-08-04T05:40:46.148Z,22.81
2022-08-04T05:43:14.450Z,22.85
2022-08-04T05:45:42.446Z,22.87
2022-08-04T05:48:11.627Z,22.93
2022-08-04T05:50:39.178Z,22.96
2022-08-04T05:53:09.886Z,22.97
2022-08-04T05:55:59.296Z,23.01
2022-08-04T05:58:25.563Z,23.04
2022-08-04T06:00:54.968Z,23.11
2022-08-04T06:03:24.080Z,23.09
2022-08-04T06:05:52.316Z,23.15
2022-08-04T06:08:19.391Z,23.22
2022-08-04T06:10:48.290Z,23.26
2022-08-04T06:13:47.678Z,23.29
2022-08-04T06:16:28.777Z,23.30
2022-08-04T06:20:01.200Z,23.35
2022-08-04T06:21:52.497Z,23.44
2022-08-04T06:24:22.720Z,23.50
2022-08-04T06:26:51.677Z,23.54
2022-08-04T06:29:21.724Z,23.60
2022-08-04T06:32:28.939Z,23.63
2022-08-04T06:34:38.163Z,23.67
2022-08-04T06:37:06.834Z,23.73
2022-08-04T06:39:35.044Z,23.78
2022-08-04T06:42:17.484Z,23.82
2022-08-04T06:44:52.730Z,23.91
2022-08-04T06:47:21.074Z,23.99
2022-08-04T06:51:24.793Z,24.11
2022-08-04T06:52:40.069Z,24.25
2022-08-04T06:55:07.983Z,24.34
2022-08-04T06:57:36.616Z,24.53
2022-08-04T07:00:06.407Z,24.80
2022-08-04T07:02:39.293Z,24.99
2022-08-04T07:05:08.136Z,25.18
2022-08-04T07:07:51.503Z,25.31
2022-08-04T07:10:23.740Z,25.36
2022-08-04T07:12:53.749Z,25.40
2022-08-04T07:15:21.969Z,25.42
2022-08-04T07:17:52.174Z,25.50
2022-08-04T07:20:34.518Z,25.67
2022-08-04T07:23:07.476Z,25.79
2022-08-04T07:26:11.895Z,25.89
2022-08-04T07:28:27.783Z,26.14
2022-08-04T07:30:56.771Z,26.28
2022-08-04T07:33:24.956Z,26.47
2022-08-04T07:36:05.791Z,26.65
2022-08-04T07:38:51.088Z,26.88
2022-08-04T07:41:42.537Z,27.13
2022-08-04T07:44:14.949Z,27.34
2022-08-04T07:46:46.147Z,27.46
2022-08-04T07:49:13.262Z,27.56
2022-08-04T07:52:00.996Z,27.67
2022-08-04T07:54:28.140Z,27.81
2022-08-04T07:56:55.737Z,27.99
2022-08-04T07:59:22.823Z,28.04
2022-08-04T08:01:50.365Z,28.08
2022-08-04T08:04:18.022Z,28.18
2022-08-04T08:06:45.243Z,28.37
2022-08-04T08:09:18.513Z,28.46
2022-08-04T08:12:36.346Z,28.53
2022-08-04T08:14:36.048Z,28.54
2022-08-04T08:17:04.356Z,28.73
2022-08-04T08:19:32.698Z,28.78
2022-08-04T08:22:01.422Z,28.92
2022-08-04T08:24:35.441Z,29.05
2022-08-04T08:27:03.792Z,29.02
2022-08-04T08:29:33.176Z,29.05
2022-08-04T08:32:07.434Z,29.07
2022-08-04T08:34:36.259Z,29.14
2022-08-04T08:37:30.896Z,29.17
2022-08-04T08:40:16.517Z,29.23
2022-08-04T08:42:55.690Z,29.20
2022-08-04T08:45:52.946Z,29.22
2022-08-04T08:48:57.523Z,29.34
2022-08-04T08:51:48.455Z,29.38
2022-08-04T08:54:21.494Z,29.51
2022-08-04T08:57:03.201Z,29.63
2022-08-04T09:00:05.475Z,29.76
2022-08-04T09:02:44.437Z,29.68
2022-08-04T09:05:20.431Z,29.61
2022-08-04T09:08:15.102Z,29.57
2022-08-04T09:11:14.887Z,29.58
2022-08-04T09:14:00.466Z,29.58
2022-08-04T09:16:47.637Z,29.77
2022-08-04T09:19:42.574Z,29.86
2022-08-04T09:22:47.365Z,29.84
2022-08-04T09:25:30.936Z,29.86
2022-08-04T09:28:09.464Z,29.96
2022-08-04T09:30:42.107Z,30.11
2022-08-04T09:33:45.652Z,30.11
2022-08-04T09:36:37.048Z,30.26
2022-08-04T09:39:15.957Z,30.30
2022-08-04T09:42:12.121Z,30.36
2022-08-04T09:45:06.478Z,30.48
2022-08-04T09:47:46.780Z,30.65
2022-08-04T09:50:38.886Z,30.80
2022-08-04T09:53:20.947Z,30.96
2022-08-04T09:55:54.771Z,31.16
2022-08-04T09:58:28.315Z,31.32
2022-08-04T10:01:06.548Z,31.46
2022-08-04T10:03:38.275Z,31.52
2022-08-04T10:06:11.602Z,31.54
2022-08-04T10:08:57.374Z,31.49
2022-08-04T10:11:55.592Z,31.52
2022-08-04T10:14:54.104Z,31.78
2022-08-04T10:17:43.508Z,32.04
2022-08-04T10:20:50.870Z,32.11
2022-08-04T10:23:55.931Z,32.27
2022-08-04T10:27:21.330Z,32.35
2022-08-04T10:29:48.733Z,32.39
2022-08-04T10:32:21.579Z,32.33
2022-08-04T10:35:07.184Z,32.26
2022-08-04T10:38:00.343Z,32.18
2022-08-04T10:40:39.830Z,32.25
2022-08-04T10:43:22.768Z,32.39
2022-08-04T10:45:59.973Z,32.44
2022-08-04T10:48:35.644Z,32.45
2022-08-04T10:51:28.400Z,32.43
2022-08-04T10:54:03.326Z,32.46
2022-08-04T10:56:36.664Z,32.52
2022-08-04T10:59:10.658Z,32.58
2022-08-04T11:02:00.035Z,32.64
2022-08-04T11:04:47.826Z,32.77
2022-08-04T11:07:17.547Z,32.87
2022-08-04T11:09:45.906Z,33.00
2022-08-04T11:12:25.840Z,33.00
2022-08-04T11:15:01.821Z,33.15
2022-08-04T11:17:53.911Z,33.16
2022-08-04T11:20:36.163Z,33.20
2022-08-04T11:23:06.737Z,33.07
2022-08-04T11:25:47.262Z,32.95
2022-08-04T11:28:39.366Z,32.83
2022-08-04T11:31:19.351Z,32.73
2022-08-04T11:34:01.766Z,32.72
2022-08-04T11:37:00.750Z,32.81
2022-08-04T11:39:46.346Z,32.91
2022-08-04T11:42:26.841Z,32.89
2022-08-04T11:45:38.196Z,32.80
2022-08-04T11:48:15.012Z,32.73
2022-08-04T11:50:53.767Z,32.72
2022-08-04T11:53:24.206Z,32.77
2022-08-04T11:56:09.518Z,32.77
2022-08-04T11:58:37.874Z,32.75
2022-08-04T12:01:23.045Z,32.75
2022-08-04T12:04:04.558Z,32.67
2022-08-04T12:07:04.749Z,32.70
2022-08-04T12:09:48.699Z,32.85
2022-08-04T12:12:24.445Z,32.94
2022-08-04T12:15:18.835Z,33.04
2022-08-04T12:17:52.685Z,33.03
2022-08-04T12:20:31.954Z,32.99
2022-08-04T12:23:16.918Z,32.95
2022-08-04T12:25:48.198Z,32.87
2022-08-04T12:28:26.463Z,32.80
2022-08-04T12:31:16.019Z,32.72
2022-08-04T12:34:04.104Z,32.71
2022-08-04T12:36:59.133Z,32.77
2022-08-04T12:39:28.076Z,32.86
2022-08-04T12:42:20.883Z,32.95
2022-08-04T12:44:49.771Z,33.09
2022-08-04T12:47:26.354Z,33.20
2022-08-04T12:50:00.671Z,33.26
2022-08-04T12:55:19.952Z,33.34
2022-08-04T12:57:49.670Z,33.31
2022-08-04T13:00:39.690Z,33.21
2022-08-04T13:03:11.825Z,33.17
2022-08-04T13:05:41.159Z,33.15
2022-08-04T13:08:10.418Z,33.10
2022-08-04T13:10:48.043Z,33.03
2022-08-04T13:13:27.674Z,32.96
2022-08-04T13:15:59.298Z,32.95
2022-08-04T13:18:32.460Z,32.95
2022-08-04T13:21:23.308Z,32.98
2022-08-04T13:24:21.840Z,33.07
2022-08-04T13:26:54.627Z,33.04
2022-08-04T13:29:58.690Z,33.06
2022-08-04T13:32:18.978Z,33.04
2022-08-04T13:34:48.873Z,33.02
2022-08-04T13:37:21.048Z,33.01
2022-08-04T13:39:55.347Z,32.92
2022-08-04T13:42:24.653Z,32.87
2022-08-04T13:44:57.181Z,32.79
2022-08-04T13:47:30.011Z,32.75
2022-08-04T13:50:15.738Z,32.71
2022-08-04T13:52:43.495Z,32.68
2022-08-04T13:55:34.847Z,32.63
2022-08-04T13:58:14.646Z,32.51
2022-08-04T14:01:02.309Z,32.46
2022-08-04T14:03:54.149Z,32.43
2022-08-04T14:06:25.634Z,32.45
2022-08-04T14:09:01.290Z,32.53
2022-08-04T14:12:06.385Z,32.55
2022-08-04T14:14:29.290Z,32.47
2022-08-04T14:16:57.467Z,32.44
2022-08-04T14:19:29.210Z,32.39
2022-08-04T14:21:58.011Z,32.35
2022-08-04T14:24:27.627Z,32.35
2022-08-04T14:27:00.153Z,32.46
2022-08-04T14:29:38.120Z,32.46
2022-08-04T14:32:12.523Z,32.49
2022-08-04T14:34:44.801Z,32.46
2022-08-04T14:37:16.960Z,32.41
2022-08-04T14:40:19.292Z,32.37
2022-08-04T14:42:53.838Z,32.30
2022-08-04T14:45:31.854Z,32.28
2022-08-04T14:47:59.970Z,32.22
2022-08-04T14:50:35.502Z,32.19
2022-08-04T14:53:04.303Z,32.17
2022-08-04T14:55:31.381Z,32.18
2022-08-04T14:58:36.946Z,32.10
2022-08-04T15:00:45.919Z,32.02
2022-08-04T15:03:13.191Z,31.88
2022-08-04T15:05:59.764Z,31.80
2022-08-04T15:08:31.321Z,31.73
2022-08-04T15:11:02.681Z,31.68
2022-08-04T15:13:33.605Z,31.54
2022-08-04T15:16:07.898Z,31.41
2022-08-04T15:18:37.235Z,31.27
2022-08-04T15:21:05.137Z,31.20
2022-08-04T15:23:38.927Z,31.21
2022-08-04T15:26:32.052Z,31.08
2022-08-04T15:29:26.178Z,31.01
2022-08-04T15:32:05.966Z,30.94
2022-08-04T15:35:01.289Z,30.86
2022-08-04T15:37:37.497Z,30.69
2022-08-04T15:40:15.215Z,30.56
2022-08-04T15:43:08.854Z,30.42
2022-08-04T15:46:41.468Z,30.31
2022-08-04T15:48:49.448Z,30.23
2022-08-04T15:51:28.446Z,30.11
2022-08-04T15:54:02.943Z,30.04
2022-08-04T15:56:30.526Z,29.89
2022-08-04T15:58:58.914Z,29.83
2022-08-04T16:01:26.142Z,29.80
2022-08-04T16:04:00.367Z,29.72
2022-08-04T16:06:29.669Z,29.67
2022-08-04T16:09:05.463Z,29.55
2022-08-04T16:11:37.474Z,29.42
2022-08-04T16:14:04.301Z,29.26
2022-08-04T16:16:37.853Z,29.10
2022-08-04T16:19:14.954Z,28.95
2022-08-04T16:21:50.946Z,28.83
2022-08-04T16:24:38.054Z,28.72
2022-08-04T16:27:05.904Z,28.58
2022-08-04T16:29:45.323Z,28.44
2022-08-04T16:32:14.457Z,28.29
2022-08-04T16:34:54.271Z,28.16
2022-08-04T16:37:34.370Z,28.02
2022-08-04T16:40:34.030Z,27.87
2022-08-04T16:43:07.231Z,27.73
2022-08-04T16:45:54.179Z,27.60
2022-08-04T16:48:32.739Z,27.50
2022-08-04T16:51:03.313Z,27.34
2022-08-04T16:53:52.409Z,27.40
2022-08-04T16:56:29.055Z,27.44
2022-08-04T16:58:57.196Z,27.48
2022-08-04T17:01:34.104Z,27.59
2022-08-04T17:04:03.033Z,27.61
2022-08-04T17:06:38.779Z,27.55
2022-08-04T17:09:18.533Z,27.41
2022-08-04T17:11:48.224Z,27.24
2022-08-04T17:14:24.263Z,27.02
2022-08-04T17:16:52.506Z,26.90
2022-08-04T17:19:20.054Z,26.71
2022-08-04T17:22:00.643Z,26.45
2022-08-04T17:24:30.452Z,26.22
2022-08-04T17:26:58.989Z,26.07
2022-08-04T17:29:43.050Z,25.91
2022-08-04T17:32:14.920Z,25.72
2022-08-04T17:34:42.216Z,25.62
2022-08-04T17:37:38.221Z,25.57
2022-08-04T17:40:12.079Z,25.56
2022-08-04T17:42:39.375Z,25.54
2022-08-04T17:47:59.783Z,25.52
2022-08-04T17:50:29.300Z,25.53
2022-08-04T17:55:51.669Z,25.63
2022-08-04T17:58:23.766Z,25.66
2022-08-04T18:01:22.456Z,25.61
2022-08-04T18:03:51.665Z,25.60
2022-08-04T18:06:20.020Z,25.63
2022-08-04T18:08:57.581Z,25.66
2022-08-04T18:11:29.533Z,25.65
2022-08-04T18:14:09.877Z,25.67
2022-08-04T18:16:44.535Z,25.62
2022-08-04T18:19:13.337Z,25.56
2022-08-04T18:21:46.125Z,25.57
2022-08-04T18:24:35.058Z,25.57
2022-08-04T18:27:17.230Z,25.58
2022-08-04T18:29:56.491Z,25.60
2022-08-04T18:32:33.029Z,25.57
2022-08-04T18:35:03.517Z,25.54
2022-08-04T18:38:05.397Z,25.53
2022-08-04T18:40:30.134Z,25.49
2022-08-04T18:43:02.351Z,25.49
2022-08-04T18:45:34.626Z,25.44
2022-08-04T18:48:04.108Z,25.39
2022-08-04T18:51:11.117Z,25.36
2022-08-04T18:53:35.490Z,25.36
2022-08-04T18:56:04.151Z,25.32
2022-08-04T18:58:33.735Z,25.25
2022-08-04T19:01:01.291Z,25.19
2022-08-04T19:03:30.533Z,25.25
2022-08-04T19:05:58.423Z,25.21
2022-08-04T19:08:33.413Z,25.19
2022-08-04T19:11:38.689Z,25.19
2022-08-04T19:13:54.596Z,25.17
2022-08-04T19:16:26.739Z,25.13
2022-08-04T19:18:53.794Z,25.13
2022-08-04T19:22:01.461Z,25.11
2022-08-04T19:24:32.030Z,25.12
2022-08-04T19:26:56.406Z,25.13
2022-08-04T19:29:23.451Z,24.97
2022-08-04T19:34:37.421Z,24.79
2022-08-04T19:37:04.780Z,24.68
2022-08-04T19:39:31.688Z,24.59
2022-08-04T19:42:04.714Z,24.54
2022-08-04T19:44:33.313Z,24.49
2022-08-04T19:47:00.663Z,24.43
2022-08-04T19:50:03.872Z,24.41
2022-08-04T19:52:33.197Z,24.37
2022-08-04T19:55:10.732Z,24.35
2022-08-04T19:57:41.494Z,24.32
2022-08-04T20:00:10.105Z,24.31
2022-08-04T20:02:37.980Z,24.31
2022-08-04T20:05:08.802Z,24.29
2022-08-04T20:07:36.031Z,24.28
2022-08-04T20:10:05.089Z,24.26
2022-08-04T20:12:32.355Z,24.24
2022-08-04T20:15:00.119Z,24.22
2022-08-04T20:18:34.864Z,24.26
2022-08-04T20:20:14.953Z,24.34
2022-08-04T20:22:51.869Z,24.41
2022-08-04T20:25:37.601Z,24.36
2022-08-04T20:28:05.931Z,24.29
2022-08-04T20:30:33.633Z,24.22
2022-08-04T20:33:00.570Z,24.14
2022-08-04T20:35:29.567Z,24.04
2022-08-04T20:38:00.848Z,23.97
2022-08-04T20:40:29.921Z,23.92
2022-08-04T20:42:59.988Z,23.86
2022-08-04T20:45:55.574Z,23.82
2022-08-04T20:48:14.269Z,23.82
2022-08-04T20:50:41.179Z,23.85
2022-08-04T20:53:16.663Z,23.98
2022-08-04T20:55:54.955Z,24.00
2022-08-04T20:58:27.631Z,23.91
2022-08-04T21:00:55.867Z,23.89
2022-08-04T21:03:49.584Z,23.96
2022-08-04T21:06:10.948Z,23.98
2022-08-04T21:08:37.972Z,24.03
2022-08-04T21:11:06.695Z,23.98
2022-08-04T21:13:51.894Z,23.97
2022-08-04T21:16:55.204Z,23.91
2022-08-04T21:19:13.363Z,23.90
2022-08-04T21:21:42.256Z,23.95
2022-08-04T21:24:10.171Z,23.97
2022-08-04T21:26:42.767Z,23.96
2022-08-04T21:29:09.958Z,23.96
2022-08-04T21:31:50.195Z,23.94
2022-08-04T21:34:38.146Z,24.04
2022-08-04T21:39:59.569Z,24.14
2022-08-04T21:42:42.216Z,24.23
2022-08-04T21:45:10.109Z,24.31
2022-08-04T21:47:46.789Z,24.27
2022-08-04T21:50:20.147Z,24.24
2022-08-04T21:52:48.411Z,24.25
2022-08-04T21:55:16.102Z,24.26
2022-08-04T21:57:43.011Z,24.24
2022-08-04T22:00:10.951Z,24.26
2022-08-04T22:02:45.753Z,24.24
2022-08-04T22:05:15.868Z,24.23
2022-08-04T22:10:32.968Z,24.13
2022-08-04T22:13:06.686Z,24.05
2022-08-04T22:16:03.414Z,24.00
2022-08-04T22:18:24.601Z,23.98
2022-08-04T22:20:55.195Z,23.91
2022-08-04T22:23:24.323Z,23.88
2022-08-04T22:25:55.639Z,23.87
2022-08-04T22:28:25.520Z,23.89
2022-08-04T22:30:55.427Z,23.91
2022-08-04T22:33:22.815Z,23.90
2022-08-04T22:35:50.359Z,23.82
2022-08-04T22:38:23.967Z,23.89
2022-08-04T22:41:00.425Z,23.84
2022-08-04T22:43:32.950Z,23.84
2022-08-04T22:46:05.084Z,23.87
2022-08-04T22:48:35.604Z,23.83
2022-08-04T22:51:03.241Z,23.85
2022-08-04T22:53:31.271Z,23.89
2022-08-04T22:56:09.923Z,23.85
2022-08-04T22:58:51.015Z,23.85
2022-08-04T23:01:18.798Z,23.78
2022-08-04T23:03:55.321Z,23.79
2022-08-04T23:06:24.543Z,23.70
2022-08-04T23:08:52.133Z,23.72
2022-08-04T23:11:19.361Z,23.64
2022-08-04T23:13:47.374Z,23.69
2022-08-04T23:16:17.085Z,23.58
2022-08-04T23:18:48.235Z,23.49
2022-08-04T23:21:16.443Z,23.43
2022-08-04T23:23:47.705Z,23.38
2022-08-04T23:26:27.714Z,23.35
2022-08-04T23:28:55.993Z,23.35
2022-08-04T23:31:23.181Z,23.31
2022-08-04T23:33:51.778Z,23.33
2022-08-04T23:36:30.052Z,23.27
2022-08-04T23:39:04.120Z,23.25
2022-08-04T23:41:55.324Z,23.38
2022-08-04T23:44:25.307Z,23.35
2022-08-04T23:47:04.462Z,23.29
2022-08-04T23:49:43.562Z,23.22
2022-08-04T23:52:27.660Z,23.27
2022-08-04T23:55:00.325Z,23.27
2022-08-04T23:57:31.557Z,23.35
